createdAt,value
2023-12-08T00:01:20.359Z,11.32
2023-12-08T00:03:47.291Z,11.85
2023-12-08T00:06:14.435Z,10.75
2023-12-08T00:08:41.417Z,12.25
2023-12-08T00:11:08.765Z,12.05
2023-12-08T00:13:35.677Z,11.65
2023-12-08T00:16:04.131Z,11.60
2023-12-08T00:18:33.216Z,12.68
2023-12-08T00:21:00.112Z,10.23
2023-12-08T00:23:26.827Z,11.77
2023-12-08T00:25:56.073Z,10.50
2023-12-08T00:28:22.812Z,11.02
2023-12-08T00:30:49.484Z,11.05
2023-12-08T00:33:17.678Z,10.80
2023-12-08T00:35:44.794Z,11.23
2023-12-08T00:38:13.745Z,10.82
2023-12-08T00:40:42.277Z,10.27
2023-12-08T00:43:11.455Z,10.02
2023-12-08T00:45:38.482Z,10.45
2023-12-08T00:48:05.766Z,10.05
2023-12-08T00:50:32.576Z,10.65
2023-12-08T00:52:59.320Z,10.80
2023-12-08T00:55:29.025Z,9.63
2023-12-08T00:57:58.129Z,10.45
2023-12-08T01:00:24.964Z,10.35
2023-12-08T01:02:54.067Z,10.93
2023-12-08T01:05:21.163Z,10.27
2023-12-08T01:07:47.923Z,9.80
2023-12-08T01:10:19.075Z,10.13
2023-12-08T01:12:45.778Z,10.13
2023-12-08T01:15:12.606Z,10.05
2023-12-08T01:17:40.692Z,10.85
2023-12-08T01:20:10.663Z,9.90
2023-12-08T01:22:37.366Z,9.80
2023-12-08T01:25:04.272Z,10.07
2023-12-08T01:27:31.108Z,10.38
2023-12-08T01:29:57.838Z,10.50
2023-12-08T01:32:27.143Z,10.77
2023-12-08T01:34:53.893Z,10.63
2023-12-08T01:37:20.825Z,10.57
2023-12-08T01:39:49.995Z,10.55
2023-12-08T01:42:16.707Z,10.57
2023-12-08T01:44:43.443Z,9.75
2023-12-08T01:47:11.632Z,9.77
2023-12-08T01:49:40.004Z,10.45
2023-12-08T01:52:08.750Z,11.50
2023-12-08T01:54:38.155Z,11.73
2023-12-08T01:57:05.346Z,10.98
2023-12-08T01:59:32.413Z,11.25
2023-12-08T02:01:59.250Z,10.65
2023-12-08T02:04:27.346Z,11.35
2023-12-08T02:06:54.277Z,11.35
2023-12-08T02:09:21.516Z,11.15
2023-12-08T02:11:50.707Z,11.85
2023-12-08T02:14:19.834Z,11.00
2023-12-08T02:16:56.744Z,12.55
2023-12-08T02:19:24.141Z,12.10
2023-12-08T02:21:51.027Z,11.10
2023-12-08T02:24:20.545Z,11.85
2023-12-08T02:26:49.143Z,11.07
2023-12-08T02:29:16.698Z,11.85
2023-12-08T02:31:53.308Z,10.77
2023-12-08T02:34:22.771Z,11.48
2023-12-08T02:36:54.737Z,11.48
2023-12-08T02:39:24.589Z,11.10
2023-12-08T02:41:51.903Z,11.50
2023-12-08T02:44:18.628Z,10.80
2023-12-08T02:46:45.451Z,11.30
2023-12-08T02:49:14.594Z,11.40
2023-12-08T02:51:41.339Z,11.68
2023-12-08T02:54:08.363Z,11.55
2023-12-08T02:56:37.475Z,11.05
2023-12-08T02:59:04.213Z,11.55
2023-12-08T03:01:30.897Z,11.27
2023-12-08T03:04:00.047Z,11.68
2023-12-08T03:06:29.229Z,10.95
2023-12-08T03:08:56.483Z,10.75
2023-12-08T03:11:23.180Z,12.32
2023-12-08T03:13:49.827Z,12.30
2023-12-08T03:16:17.180Z,11.55
2023-12-08T03:18:44.090Z,11.95
2023-12-08T03:21:26.711Z,10.75
2023-12-08T03:23:53.826Z,11.05
2023-12-08T03:26:22.913Z,11.90
2023-12-08T03:28:49.615Z,11.63
2023-12-08T03:31:30.353Z,10.80
2023-12-08T03:33:57.325Z,11.70
2023-12-08T03:36:27.123Z,11.68
2023-12-08T03:38:53.886Z,12.48
2023-12-08T03:41:23.296Z,12.32
2023-12-08T03:43:50.048Z,12.38
2023-12-08T03:46:19.225Z,11.73
2023-12-08T03:48:46.528Z,12.45
2023-12-08T03:51:13.691Z,11.88
2023-12-08T03:53:40.588Z,11.93
2023-12-08T03:56:08.555Z,12.27
2023-12-08T03:58:39.999Z,11.43
2023-12-08T04:01:06.818Z,11.90
2023-12-08T04:03:33.644Z,11.63
2023-12-08T04:06:05.223Z,11.52
2023-12-08T04:08:34.836Z,10.98
2023-12-08T04:11:04.984Z,11.40
2023-12-08T04:13:31.880Z,11.80
2023-12-08T04:16:01.070Z,11.70
2023-12-08T04:18:27.806Z,12.13
2023-12-08T04:20:54.704Z,12.15
2023-12-08T04:23:21.407Z,11.80
2023-12-08T04:25:50.317Z,12.20
2023-12-08T04:28:19.215Z,12.40
2023-12-08T04:30:46.034Z,12.40
2023-12-08T04:33:12.926Z,12.57
2023-12-08T04:35:39.699Z,12.35
2023-12-08T04:38:06.403Z,13.52
2023-12-08T04:40:33.130Z,12.32
2023-12-08T04:42:59.825Z,12.50
2023-12-08T04:45:29.560Z,12.05
2023-12-08T04:47:56.332Z,11.77
2023-12-08T04:50:23.090Z,12.85
2023-12-08T04:52:49.775Z,13.00
2023-12-08T04:55:18.803Z,12.10
2023-12-08T04:57:48.012Z,12.48
2023-12-08T05:00:17.881Z,12.43
2023-12-08T05:02:44.684Z,11.80
2023-12-08T05:05:11.392Z,11.95
2023-12-08T05:07:38.087Z,12.15
2023-12-08T05:10:05.693Z,12.07
2023-12-08T05:12:32.499Z,12.90
2023-12-08T05:15:03.949Z,13.35
2023-12-08T05:17:31.155Z,12.35
2023-12-08T05:19:58.264Z,12.80
2023-12-08T05:22:27.663Z,10.98
2023-12-08T05:24:54.387Z,12.43
2023-12-08T05:27:21.455Z,12.73
2023-12-08T05:29:48.249Z,13.70
2023-12-08T05:32:14.959Z,11.25
2023-12-08T05:34:41.701Z,11.98
2023-12-08T05:37:08.402Z,11.80
2023-12-08T05:39:35.302Z,12.32
2023-12-08T05:42:01.995Z,12.82
2023-12-08T05:44:28.687Z,11.43
2023-12-08T05:46:57.162Z,12.43
2023-12-08T05:49:25.289Z,10.95
2023-12-08T05:51:52.051Z,12.18
2023-12-08T05:54:18.738Z,12.13
2023-12-08T05:56:45.460Z,13.07
2023-12-08T05:59:12.188Z,11.68
2023-12-08T06:01:38.873Z,11.57
2023-12-08T06:04:05.548Z,11.65
2023-12-08T06:06:33.362Z,12.50
2023-12-08T06:09:00.291Z,12.35
2023-12-08T06:11:29.435Z,13.07
2023-12-08T06:13:58.576Z,12.68
2023-12-08T06:16:26.428Z,13.15
2023-12-08T06:18:53.495Z,13.35
2023-12-08T06:21:20.220Z,12.75
2023-12-08T06:23:47.584Z,13.25
2023-12-08T06:26:16.776Z,13.75
2023-12-08T06:28:43.464Z,13.32
2023-12-08T06:31:11.006Z,12.45
2023-12-08T06:33:37.845Z,14.02
2023-12-08T06:36:06.158Z,13.98
2023-12-08T06:38:37.696Z,14.32
2023-12-08T06:41:04.587Z,14.35
2023-12-08T06:43:31.569Z,13.38
2023-12-08T06:45:58.261Z,14.13
2023-12-08T06:48:25.296Z,14.30
2023-12-08T06:50:52.329Z,14.07
2023-12-08T06:53:19.048Z,13.88
2023-12-08T06:55:45.739Z,15.32
2023-12-08T06:58:14.975Z,14.63
2023-12-08T07:00:43.946Z,14.70
2023-12-08T07:03:10.924Z,15.27
2023-12-08T07:05:37.697Z,15.95
2023-12-08T07:08:04.637Z,16.60
2023-12-08T07:10:31.713Z,16.08
2023-12-08T07:13:01.036Z,14.23
2023-12-08T07:15:27.797Z,15.18
2023-12-08T07:17:57.174Z,14.98
2023-12-08T07:20:24.111Z,14.02
2023-12-08T07:22:50.863Z,14.85
2023-12-08T07:25:17.546Z,14.68
2023-12-08T07:27:46.467Z,14.55
2023-12-08T07:30:13.599Z,14.02
2023-12-08T07:32:42.734Z,14.55
2023-12-08T07:35:09.941Z,15.38
2023-12-08T07:37:42.713Z,14.30
2023-12-08T07:40:10.339Z,14.95
2023-12-08T07:42:37.904Z,14.75
2023-12-08T07:45:07.976Z,15.57
2023-12-08T07:47:35.124Z,15.40
2023-12-08T07:50:07.228Z,16.02
2023-12-08T07:52:34.829Z,15.50
2023-12-08T07:55:01.876Z,15.88
2023-12-08T07:57:29.646Z,15.45
2023-12-08T07:59:59.314Z,15.13
2023-12-08T08:02:26.316Z,15.88
2023-12-08T08:04:53.452Z,15.93
2023-12-08T08:07:26.993Z,15.75
2023-12-08T08:09:57.264Z,14.45
2023-12-08T08:12:26.326Z,16.63
2023-12-08T08:14:53.021Z,14.75
2023-12-08T08:17:19.890Z,15.10
2023-12-08T08:19:48.829Z,13.90
2023-12-08T08:22:29.602Z,15.38
2023-12-08T08:25:01.863Z,14.98
2023-12-08T08:27:29.820Z,15.20
2023-12-08T08:29:59.737Z,14.93
2023-12-08T08:32:26.451Z,15.18
2023-12-08T08:34:56.106Z,16.02
2023-12-08T08:37:24.836Z,15.65
2023-12-08T08:39:52.152Z,15.52
2023-12-08T08:42:19.318Z,16.27
2023-12-08T08:44:48.564Z,19.17
2023-12-08T08:47:15.325Z,17.17
2023-12-08T08:49:45.215Z,16.13
2023-12-08T08:52:13.523Z,16.20
2023-12-08T08:54:40.649Z,16.27
2023-12-08T08:57:07.405Z,15.02
2023-12-08T08:59:36.655Z,15.57
2023-12-08T09:02:06.266Z,16.25
2023-12-08T09:04:35.281Z,16.23
2023-12-08T09:07:02.143Z,16.63
2023-12-08T09:09:29.175Z,16.30
2023-12-08T09:11:58.259Z,16.35
2023-12-08T09:14:25.107Z,15.57
2023-12-08T09:16:51.853Z,16.88
2023-12-08T09:19:18.641Z,16.55
2023-12-08T09:21:52.331Z,16.50
2023-12-08T09:24:22.311Z,15.95
2023-12-08T09:26:49.203Z,16.08
2023-12-08T09:29:18.267Z,16.08
2023-12-08T09:31:45.206Z,15.40
2023-12-08T09:34:12.471Z,14.77
2023-12-08T09:36:41.654Z,14.88
2023-12-08T09:39:28.486Z,14.80
2023-12-08T09:42:00.809Z,14.30
2023-12-08T09:44:28.865Z,13.95
2023-12-08T09:46:57.708Z,14.57
2023-12-08T09:49:41.296Z,15.25
2023-12-08T09:52:10.949Z,13.75
2023-12-08T09:54:37.825Z,14.90
2023-12-08T09:57:06.992Z,14.77
2023-12-08T09:59:36.111Z,14.68
2023-12-08T10:02:04.991Z,13.75
2023-12-08T10:04:31.723Z,13.25
2023-12-08T10:07:01.553Z,14.25
2023-12-08T10:09:31.039Z,15.68
2023-12-08T10:11:57.858Z,13.18
2023-12-08T10:14:26.526Z,13.68
2023-12-08T10:16:53.688Z,13.38
2023-12-08T10:19:24.793Z,13.45
2023-12-08T10:22:03.999Z,13.38
2023-12-08T10:24:34.712Z,14.63
2023-12-08T10:27:01.808Z,13.85
2023-12-08T10:29:32.405Z,13.80
2023-12-08T10:32:00.214Z,12.73
2023-12-08T10:34:29.914Z,13.43
2023-12-08T10:36:56.905Z,14.13
2023-12-08T10:39:27.362Z,12.75
2023-12-08T10:41:56.743Z,13.75
2023-12-08T10:44:26.895Z,13.40
2023-12-08T10:46:57.776Z,13.75
2023-12-08T10:49:27.395Z,14.30
2023-12-08T10:51:55.209Z,14.13
2023-12-08T10:54:22.267Z,14.32
2023-12-08T10:56:49.844Z,14.98
2023-12-08T10:59:22.519Z,13.90
2023-12-08T11:01:52.954Z,14.15
2023-12-08T11:04:26.266Z,14.05
2023-12-08T11:07:06.599Z,14.68
2023-12-08T11:09:38.237Z,14.75
2023-12-08T11:12:07.774Z,13.30
2023-12-08T11:14:50.128Z,13.07
2023-12-08T11:17:21.283Z,14.90
2023-12-08T11:19:50.765Z,12.55
2023-12-08T11:22:20.520Z,13.63
2023-12-08T11:24:50.123Z,14.02
2023-12-08T11:27:33.920Z,14.70
2023-12-08T11:30:00.758Z,13.73
2023-12-08T11:32:31.322Z,12.85
2023-12-08T11:35:06.444Z,12.10
2023-12-08T11:37:39.058Z,12.27
2023-12-08T11:40:12.404Z,13.48
2023-12-08T11:42:40.844Z,12.70
2023-12-08T11:45:11.684Z,11.82
2023-12-08T11:47:42.774Z,13.68
2023-12-08T11:50:11.587Z,12.73
2023-12-08T11:52:38.931Z,12.82
2023-12-08T11:55:13.967Z,12.00
2023-12-08T11:57:54.280Z,12.02
2023-12-08T12:00:23.207Z,12.40
2023-12-08T12:02:51.373Z,13.95
2023-12-08T12:05:21.267Z,13.32
2023-12-08T12:07:52.636Z,12.80
2023-12-08T12:10:30.463Z,12.95
2023-12-08T12:13:06.187Z,13.63
2023-12-08T12:15:37.228Z,13.15
2023-12-08T12:18:04.769Z,14.05
2023-12-08T12:20:35.234Z,13.10
2023-12-08T12:23:02.662Z,13.25
2023-12-08T12:25:32.000Z,14.25
2023-12-08T12:27:59.078Z,14.90
2023-12-08T12:30:28.643Z,16.08
2023-12-08T12:32:58.188Z,14.02
2023-12-08T12:35:25.270Z,14.73
2023-12-08T12:37:54.416Z,15.90
2023-12-08T12:40:21.146Z,15.10
2023-12-08T12:42:49.556Z,14.95
2023-12-08T12:45:32.083Z,17.67
2023-12-08T12:48:11.763Z,18.05
2023-12-08T12:50:48.865Z,18.38
2023-12-08T12:53:15.959Z,17.77
2023-12-08T12:55:43.577Z,19.23
2023-12-08T12:58:23.164Z,19.95
2023-12-08T13:00:50.909Z,19.25
2023-12-08T13:03:20.000Z,19.13
2023-12-08T13:05:49.100Z,18.42
2023-12-08T13:08:19.850Z,18.85
2023-12-08T13:10:49.718Z,19.20
2023-12-08T13:13:19.028Z,17.73
2023-12-08T13:15:46.905Z,19.55
2023-12-08T13:18:16.804Z,18.52
2023-12-08T13:20:43.952Z,16.88
2023-12-08T13:23:10.964Z,16.73
2023-12-08T13:25:41.545Z,17.85
2023-12-08T13:28:08.378Z,19.58
2023-12-08T13:30:37.666Z,15.40
2023-12-08T13:33:07.186Z,18.60
2023-12-08T13:35:36.969Z,18.40
2023-12-08T13:38:03.699Z,17.42
2023-12-08T13:40:30.838Z,17.25
2023-12-08T13:42:57.774Z,17.15
2023-12-08T13:45:24.649Z,16.90
2023-12-08T13:47:51.734Z,16.00
2023-12-08T13:50:18.570Z,16.13
2023-12-08T13:52:45.328Z,15.68
2023-12-08T13:55:12.057Z,14.98
2023-12-08T13:57:39.392Z,16.10
2023-12-08T14:00:07.514Z,16.00
2023-12-08T14:02:34.331Z,13.85
2023-12-08T14:05:03.997Z,16.40
2023-12-08T14:07:31.058Z,16.20
2023-12-08T14:09:58.029Z,15.38
2023-12-08T14:12:24.806Z,15.63
2023-12-08T14:14:54.110Z,15.40
2023-12-08T14:17:21.567Z,15.90
2023-12-08T14:19:48.606Z,13.30
2023-12-08T14:22:15.326Z,12.52
2023-12-08T14:24:44.525Z,12.43
2023-12-08T14:27:11.294Z,12.52
2023-12-08T14:29:38.695Z,14.30
2023-12-08T14:32:05.608Z,14.07
2023-12-08T14:34:32.354Z,12.77
2023-12-08T14:36:59.180Z,13.98
2023-12-08T14:39:30.708Z,13.48
2023-12-08T14:41:57.524Z,13.38
2023-12-08T14:44:26.481Z,14.98
2023-12-08T14:46:53.187Z,12.82
2023-12-08T14:49:20.469Z,14.40
2023-12-08T14:51:47.484Z,14.13
2023-12-08T14:54:20.568Z,15.00
2023-12-08T14:56:52.973Z,14.98
2023-12-08T14:59:22.151Z,14.32
2023-12-08T15:01:57.724Z,14.63
2023-12-08T15:04:25.003Z,15.40
2023-12-08T15:06:51.755Z,15.82
2023-12-08T15:09:20.743Z,15.75
2023-12-08T15:11:47.602Z,14.98
2023-12-08T15:14:14.458Z,15.45
2023-12-08T15:16:43.512Z,14.27
2023-12-08T15:19:10.376Z,14.75
2023-12-08T15:21:37.748Z,15.57
2023-12-08T15:24:04.853Z,15.75
2023-12-08T15:26:33.879Z,16.13
2023-12-08T15:29:03.017Z,16.20
2023-12-08T15:31:33.062Z,16.88
2023-12-08T15:34:05.519Z,15.45
2023-12-08T15:36:32.370Z,15.95
2023-12-08T15:39:01.549Z,16.33
2023-12-08T15:41:28.262Z,16.17
2023-12-08T15:43:55.029Z,16.17
2023-12-08T15:46:24.030Z,15.65
2023-12-08T15:48:51.018Z,20.20
2023-12-08T15:51:20.577Z,17.65
2023-12-08T15:53:49.981Z,17.80
2023-12-08T15:56:16.810Z,18.02
2023-12-08T15:58:43.483Z,21.52
2023-12-08T16:01:20.302Z,17.08
2023-12-08T16:03:51.738Z,16.27
2023-12-08T16:06:18.844Z,14.73
2023-12-08T16:08:48.284Z,14.60
2023-12-08T16:11:26.367Z,14.18
2023-12-08T16:13:53.306Z,15.18
2023-12-08T16:16:24.373Z,15.88
2023-12-08T16:18:51.962Z,15.35
2023-12-08T16:21:29.190Z,14.38
2023-12-08T16:24:00.160Z,15.38
2023-12-08T16:26:27.873Z,14.73
2023-12-08T16:28:54.661Z,15.80
2023-12-08T16:31:25.418Z,15.93
2023-12-08T16:33:52.248Z,15.73
2023-12-08T16:36:19.758Z,15.93
2023-12-08T16:38:46.603Z,14.13
2023-12-08T16:41:13.449Z,13.68
2023-12-08T16:43:42.369Z,14.07
2023-12-08T16:46:11.349Z,14.57
2023-12-08T16:48:38.138Z,14.93
2023-12-08T16:51:11.180Z,13.93
2023-12-08T16:53:38.047Z,14.60
2023-12-08T16:56:05.151Z,14.85
2023-12-08T16:58:31.864Z,15.50
2023-12-08T17:00:58.562Z,15.73
2023-12-08T17:03:25.380Z,15.57
2023-12-08T17:05:54.632Z,16.38
2023-12-08T17:08:23.522Z,16.50
2023-12-08T17:10:50.305Z,16.67
2023-12-08T17:13:17.040Z,15.18
2023-12-08T17:15:46.168Z,16.30
2023-12-08T17:18:15.338Z,15.70
2023-12-08T17:20:42.215Z,15.27
2023-12-08T17:23:08.936Z,15.82
2023-12-08T17:25:35.623Z,16.20
2023-12-08T17:28:02.726Z,15.95
2023-12-08T17:30:31.615Z,14.38
2023-12-08T17:33:01.313Z,14.77
2023-12-08T17:35:28.167Z,15.80
2023-12-08T17:37:54.890Z,14.70
2023-12-08T17:40:21.633Z,16.08
2023-12-08T17:42:50.758Z,15.75
2023-12-08T17:45:17.652Z,17.20
2023-12-08T17:47:44.700Z,14.70
2023-12-08T17:50:18.728Z,14.77
2023-12-08T17:52:47.695Z,13.60
2023-12-08T17:55:14.462Z,15.35
2023-12-08T17:57:41.637Z,18.25
2023-12-08T18:00:09.190Z,15.35
2023-12-08T18:02:39.387Z,14.35
2023-12-08T18:05:09.048Z,14.10
2023-12-08T18:07:35.981Z,13.75
2023-12-08T18:10:02.726Z,13.38
2023-12-08T18:12:29.782Z,13.73
2023-12-08T18:14:56.773Z,13.18
2023-12-08T18:17:23.757Z,14.07
2023-12-08T18:19:50.483Z,12.18
2023-12-08T18:22:17.164Z,11.73
2023-12-08T18:24:46.225Z,12.85
2023-12-08T18:27:20.426Z,13.18
2023-12-08T18:29:57.661Z,12.30
2023-12-08T18:32:24.963Z,11.93
2023-12-08T18:34:51.875Z,9.23
2023-12-08T18:37:21.312Z,9.80
2023-12-08T18:39:48.032Z,10.65
2023-12-08T18:42:15.218Z,10.73
2023-12-08T18:44:41.946Z,11.82
2023-12-08T18:47:08.602Z,10.30
2023-12-08T18:49:35.768Z,9.55
2023-12-08T18:52:02.605Z,9.77
2023-12-08T18:54:30.317Z,9.73
2023-12-08T18:56:57.249Z,9.00
2023-12-08T18:59:24.008Z,8.55
2023-12-08T19:01:52.531Z,9.10
2023-12-08T19:04:20.768Z,8.07
2023-12-08T19:06:47.681Z,8.38
2023-12-08T19:09:20.229Z,8.77
2023-12-08T19:11:49.678Z,7.85
2023-12-08T19:14:16.381Z,8.20
2023-12-08T19:16:43.070Z,8.45
2023-12-08T19:19:09.942Z,7.65
2023-12-08T19:21:36.700Z,8.65
2023-12-08T19:24:03.481Z,7.40
2023-12-08T19:26:32.412Z,8.18
2023-12-08T19:29:02.088Z,8.40
2023-12-08T19:31:29.092Z,8.30
2023-12-08T19:33:55.911Z,8.27
2023-12-08T19:36:22.740Z,7.65
2023-12-08T19:38:51.732Z,8.63
2023-12-08T19:41:19.072Z,6.57
2023-12-08T19:43:45.780Z,6.88
2023-12-08T19:46:12.563Z,6.80
2023-12-08T19:48:39.395Z,6.28
2023-12-08T19:51:08.433Z,7.72
2023-12-08T19:53:35.171Z,6.57
2023-12-08T19:56:06.577Z,6.65
2023-12-08T19:58:33.377Z,7.13
2023-12-08T20:01:02.560Z,7.82
2023-12-08T20:03:31.976Z,7.10
2023-12-08T20:05:58.924Z,5.63
2023-12-08T20:08:25.753Z,5.63
2023-12-08T20:10:57.586Z,5.70
2023-12-08T20:13:24.446Z,5.80
2023-12-08T20:15:51.137Z,5.82
2023-12-08T20:18:20.212Z,5.57
2023-12-08T20:20:47.113Z,5.55
2023-12-08T20:23:13.915Z,4.97
2023-12-08T20:25:41.472Z,5.07
2023-12-08T20:28:09.489Z,5.63
2023-12-08T20:30:36.630Z,6.50
2023-12-08T20:33:03.668Z,5.40
2023-12-08T20:35:32.894Z,5.22
2023-12-08T20:38:02.167Z,4.63
2023-12-08T20:40:33.890Z,4.70
2023-12-08T20:43:00.580Z,4.63
2023-12-08T20:45:27.499Z,4.60
2023-12-08T20:47:54.360Z,4.80
2023-12-08T20:50:24.448Z,4.97
2023-12-08T20:52:51.219Z,5.47
2023-12-08T20:55:17.975Z,5.15
2023-12-08T20:57:45.763Z,4.75
2023-12-08T21:00:14.850Z,4.13
2023-12-08T21:02:43.891Z,4.07
2023-12-08T21:05:10.616Z,4.53
2023-12-08T21:07:40.314Z,4.57
2023-12-08T21:10:07.964Z,4.72
2023-12-08T21:12:36.894Z,4.82
2023-12-08T21:15:04.544Z,4.32
2023-12-08T21:17:31.365Z,5.07
2023-12-08T21:20:00.750Z,5.18
2023-12-08T21:22:36.986Z,4.65
2023-12-08T21:25:04.034Z,4.35
2023-12-08T21:27:32.875Z,4.13
2023-12-08T21:29:59.611Z,3.85
2023-12-08T21:32:28.485Z,3.83
2023-12-08T21:34:55.278Z,4.47
2023-12-08T21:37:22.015Z,4.00
2023-12-08T21:39:49.145Z,4.03
2023-12-08T21:42:16.152Z,4.25
2023-12-08T21:44:43.575Z,4.13
2023-12-08T21:47:10.584Z,3.47
2023-12-08T21:49:38.407Z,4.07
2023-12-08T21:52:06.222Z,3.45
2023-12-08T21:54:33.258Z,4.25
2023-12-08T21:57:02.264Z,4.03
2023-12-08T21:59:28.955Z,3.60
2023-12-08T22:01:55.625Z,3.03
2023-12-08T22:04:22.330Z,3.35
2023-12-08T22:06:49.218Z,3.47
2023-12-08T22:09:15.972Z,3.17
2023-12-08T22:11:44.975Z,3.70
2023-12-08T22:14:11.760Z,3.30
2023-12-08T22:16:38.517Z,3.40
2023-12-08T22:19:05.314Z,3.20
2023-12-08T22:21:32.079Z,3.83
2023-12-08T22:23:58.893Z,3.15
2023-12-08T22:26:25.692Z,3.40
2023-12-08T22:28:54.781Z,2.90
2023-12-08T22:31:21.491Z,2.90
2023-12-08T22:33:48.329Z,3.10
2023-12-08T22:36:18.223Z,3.20
2023-12-08T22:38:45.298Z,3.22
2023-12-08T22:41:11.968Z,2.97
2023-12-08T22:43:39.739Z,2.92
2023-12-08T22:46:06.534Z,2.92
2023-12-08T22:48:38.433Z,3.08
2023-12-08T22:51:11.055Z,3.08
2023-12-08T22:53:43.195Z,4.00
2023-12-08T22:56:12.676Z,3.00
2023-12-08T22:58:39.337Z,3.33
2023-12-08T23:01:06.486Z,3.35
2023-12-08T23:03:33.222Z,4.07
2023-12-08T23:06:01.312Z,3.42
2023-12-08T23:08:29.246Z,3.53
2023-12-08T23:10:56.104Z,2.90
2023-12-08T23:13:23.081Z,2.83
2023-12-08T23:15:49.824Z,3.13
2023-12-08T23:18:17.059Z,3.08
2023-12-08T23:20:43.870Z,3.53
2023-12-08T23:23:10.591Z,3.17
2023-12-08T23:25:37.961Z,3.03
2023-12-08T23:28:06.946Z,3.20
2023-12-08T23:30:35.924Z,3.33
2023-12-08T23:33:02.866Z,2.92
2023-12-08T23:35:31.963Z,2.90
2023-12-08T23:37:58.851Z,2.90
2023-12-08T23:40:25.560Z,3.00
2023-12-08T23:42:52.374Z,3.30
2023-12-08T23:45:19.140Z,3.08
2023-12-08T23:47:45.872Z,2.65
2023-12-08T23:50:12.828Z,3.38
2023-12-08T23:52:39.955Z,3.65
2023-12-08T23:55:06.980Z,3.22
2023-12-08T23:57:36.338Z,3.22
